sensor_id;sensor_type;location;lat;lon;timestamp;pressure;altitude;pressure_sealevel;temperature;humidity
60099;BME280;62818;49.394;8.686;2022-08-20T00:00:38;100194.19;;;23.41;52.98
60099;BME280;62818;49.394;8.686;2022-08-20T00:01:46;100191.75;;;23.44;52.75
60099;BME280;62818;49.394;8.686;2022-08-20T00:02:55;100197.16;;;23.39;52.88
60099;BME280;62818;49.394;8.686;2022-08-20T00:03:58;100192.22;;;23.31;53.42
60099;BME280;62818;49.394;8.686;2022-08-20T00:05:01;100195.53;;;23.38;53.21
60099;BME280;62818;49.394;8.686;2022-08-20T00:06:09;100192.72;;;23.23;53.51
60099;BME280;62818;49.394;8.686;2022-08-20T00:07:15;100191.66;;;23.29;53.23
60099;BME280;62818;49.394;8.686;2022-08-20T00:08:21;100190.31;;;23.32;53.24
60099;BME280;62818;49.394;8.686;2022-08-20T00:09:21;100193.19;;;23.10;53.63
60099;BME280;62818;49.394;8.686;2022-08-20T00:10:22;100195.56;;;22.65;55.01
60099;BME280;62818;49.394;8.686;2022-08-20T00:11:24;100186.31;;;22.93;54.49
60099;BME280;62818;49.394;8.686;2022-08-20T00:12:26;100182.91;;;23.12;53.88
60099;BME280;62818;49.394;8.686;2022-08-20T00:13:31;100186.75;;;23.21;53.76
60099;BME280;62818;49.394;8.686;2022-08-20T00:14:35;100187.88;;;23.25;53.60
60099;BME280;62818;49.394;8.686;2022-08-20T00:15:38;100184.31;;;23.20;53.82
60099;BME280;62818;49.394;8.686;2022-08-20T00:16:41;100181.84;;;23.13;53.71
60099;BME280;62818;49.394;8.686;2022-08-20T00:17:44;100186.75;;;23.21;53.71
60099;BME280;62818;49.394;8.686;2022-08-20T00:18:45;100182.97;;;23.17;53.59
60099;BME280;62818;49.394;8.686;2022-08-20T00:19:49;100184.56;;;23.18;53.63
60099;BME280;62818;49.394;8.686;2022-08-20T00:20:54;100190.84;;;23.24;53.68
60099;BME280;62818;49.394;8.686;2022-08-20T00:21:58;100184.88;;;23.22;53.63
60099;BME280;62818;49.394;8.686;2022-08-20T00:22:58;100197.63;;;23.26;53.71
60099;BME280;62818;49.394;8.686;2022-08-20T00:24:04;100195.47;;;23.28;53.62
60099;BME280;62818;49.394;8.686;2022-08-20T00:25:06;100193.78;;;23.17;53.81
60099;BME280;62818;49.394;8.686;2022-08-20T00:26:09;100187.16;;;22.93;54.44
60099;BME280;62818;49.394;8.686;2022-08-20T00:27:15;100192.00;;;22.96;54.52
60099;BME280;62818;49.394;8.686;2022-08-20T00:28:18;100196.31;;;22.92;54.73
60099;BME280;62818;49.394;8.686;2022-08-20T00:29:19;100197.50;;;23.06;54.58
60099;BME280;62818;49.394;8.686;2022-08-20T00:30:26;100201.66;;;22.82;55.03
60099;BME280;62818;49.394;8.686;2022-08-20T00:31:26;100194.09;;;22.84;55.02
60099;BME280;62818;49.394;8.686;2022-08-20T00:32:27;100192.31;;;23.00;54.64
60099;BME280;62818;49.394;8.686;2022-08-20T00:33:28;100187.75;;;23.05;54.50
60099;BME280;62818;49.394;8.686;2022-08-20T00:34:31;100200.44;;;23.05;54.55
60099;BME280;62818;49.394;8.686;2022-08-20T00:35:38;100193.56;;;22.87;54.73
60099;BME280;62818;49.394;8.686;2022-08-20T00:36:40;100196.09;;;22.99;54.47
60099;BME280;62818;49.394;8.686;2022-08-20T00:37:46;100192.56;;;22.93;54.78
60099;BME280;62818;49.394;8.686;2022-08-20T00:38:49;100200.75;;;23.08;54.56
60099;BME280;62818;49.394;8.686;2022-08-20T00:39:52;100197.50;;;23.11;54.43
60099;BME280;62818;49.394;8.686;2022-08-20T00:40:55;100205.06;;;23.04;54.54
60099;BME280;62818;49.394;8.686;2022-08-20T00:41:58;100202.09;;;23.06;54.60
60099;BME280;62818;49.394;8.686;2022-08-20T00:43:01;100204.00;;;23.10;54.36
60099;BME280;62818;49.394;8.686;2022-08-20T00:44:15;100209.69;;;23.14;54.17
60099;BME280;62818;49.394;8.686;2022-08-20T00:45:26;100210.50;;;23.14;54.30
60099;BME280;62818;49.394;8.686;2022-08-20T00:46:29;100208.63;;;23.15;54.30
60099;BME280;62818;49.394;8.686;2022-08-20T00:47:32;100217.47;;;23.05;54.58
60099;BME280;62818;49.394;8.686;2022-08-20T00:48:43;100215.38;;;23.12;54.31
60099;BME280;62818;49.394;8.686;2022-08-20T00:49:51;100214.28;;;23.13;54.27
60099;BME280;62818;49.394;8.686;2022-08-20T00:51:01;100214.00;;;23.10;54.57
60099;BME280;62818;49.394;8.686;2022-08-20T00:52:13;100209.59;;;22.99;54.80
60099;BME280;62818;49.394;8.686;2022-08-20T00:53:16;100219.69;;;23.08;54.56
60099;BME280;62818;49.394;8.686;2022-08-20T00:55:34;100218.59;;;23.09;54.39
60099;BME280;62818;49.394;8.686;2022-08-20T00:56:38;100212.56;;;22.97;54.62
60099;BME280;62818;49.394;8.686;2022-08-20T00:57:48;100218.81;;;23.03;54.74
60099;BME280;62818;49.394;8.686;2022-08-20T00:58:53;100225.56;;;23.00;54.85
60099;BME280;62818;49.394;8.686;2022-08-20T00:59:55;100231.00;;;23.05;54.73
60099;BME280;62818;49.394;8.686;2022-08-20T01:00:57;100235.84;;;23.03;54.79
60099;BME280;62818;49.394;8.686;2022-08-20T01:02:02;100229.91;;;23.01;54.75
60099;BME280;62818;49.394;8.686;2022-08-20T01:03:10;100229.59;;;22.61;56.00
60099;BME280;62818;49.394;8.686;2022-08-20T01:04:15;100229.19;;;22.79;55.61
60099;BME280;62818;49.394;8.686;2022-08-20T01:05:15;100227.56;;;22.78;55.60
60099;BME280;62818;49.394;8.686;2022-08-20T01:06:17;100229.31;;;22.94;55.04
60099;BME280;62818;49.394;8.686;2022-08-20T01:07:18;100229.84;;;22.96;55.18
60099;BME280;62818;49.394;8.686;2022-08-20T01:08:21;100231.41;;;22.87;55.19
60099;BME280;62818;49.394;8.686;2022-08-20T01:09:24;100231.75;;;22.96;55.15
60099;BME280;62818;49.394;8.686;2022-08-20T01:10:31;100228.78;;;22.97;54.96
60099;BME280;62818;49.394;8.686;2022-08-20T01:11:34;100227.59;;;22.83;55.57
60099;BME280;62818;49.394;8.686;2022-08-20T01:12:37;100225.22;;;22.87;55.59
60099;BME280;62818;49.394;8.686;2022-08-20T01:13:40;100223.06;;;22.94;55.27
60099;BME280;62818;49.394;8.686;2022-08-20T01:14:44;100223.34;;;22.92;55.22
60099;BME280;62818;49.394;8.686;2022-08-20T01:15:49;100221.75;;;22.96;55.15
60099;BME280;62818;49.394;8.686;2022-08-20T01:16:57;100231.50;;;22.97;55.08
60099;BME280;62818;49.394;8.686;2022-08-20T01:18:01;100219.81;;;22.87;55.43
60099;BME280;62818;49.394;8.686;2022-08-20T01:19:07;100223.91;;;22.94;55.13
60099;BME280;62818;49.394;8.686;2022-08-20T01:20:15;100227.59;;;22.83;55.52
60099;BME280;62818;49.394;8.686;2022-08-20T01:21:19;100226.00;;;22.82;55.60
60099;BME280;62818;49.394;8.686;2022-08-20T01:24:19;100230.56;;;22.81;55.71
60099;BME280;62818;49.394;8.686;2022-08-20T01:26:55;100230.31;;;22.83;55.57
60099;BME280;62818;49.394;8.686;2022-08-20T01:28:05;100228.97;;;22.85;55.45
60099;BME280;62818;49.394;8.686;2022-08-20T01:29:16;100228.38;;;22.78;55.79
60099;BME280;62818;49.394;8.686;2022-08-20T01:30:24;100228.94;;;22.80;55.83
60099;BME280;62818;49.394;8.686;2022-08-20T01:31:33;100227.00;;;22.76;55.80
60099;BME280;62818;49.394;8.686;2022-08-20T01:32:38;100232.69;;;22.74;55.93
60099;BME280;62818;49.394;8.686;2022-08-20T01:33:39;100229.25;;;22.84;55.77
60099;BME280;62818;49.394;8.686;2022-08-20T01:34:40;100237.34;;;22.84;55.85
60099;BME280;62818;49.394;8.686;2022-08-20T01:35:43;100235.31;;;22.69;56.09
60099;BME280;62818;49.394;8.686;2022-08-20T01:36:50;100237.31;;;22.79;55.84
60099;BME280;62818;49.394;8.686;2022-08-20T01:37:52;100231.50;;;22.65;56.26
60099;BME280;62818;49.394;8.686;2022-08-20T01:38:53;100233.44;;;22.70;56.32
60099;BME280;62818;49.394;8.686;2022-08-20T01:39:53;100237.56;;;22.77;56.13
60099;BME280;62818;49.394;8.686;2022-08-20T01:41:35;100234.06;;;22.50;56.70
60099;BME280;62818;49.394;8.686;2022-08-20T01:42:47;100236.91;;;22.39;57.11
60099;BME280;62818;49.394;8.686;2022-08-20T01:43:51;100234.31;;;21.52;59.94
60099;BME280;62818;49.394;8.686;2022-08-20T01:44:58;100226.50;;;21.77;59.62
60099;BME280;62818;49.394;8.686;2022-08-20T01:46:02;100226.50;;;22.21;58.27
60099;BME280;62818;49.394;8.686;2022-08-20T01:47:16;100238.63;;;22.45;57.30
60099;BME280;62818;49.394;8.686;2022-08-20T01:48:20;100231.47;;;22.60;56.79
60099;BME280;62818;49.394;8.686;2022-08-20T01:49:26;100236.97;;;22.70;56.50
60099;BME280;62818;49.394;8.686;2022-08-20T01:50:38;100236.09;;;22.65;56.88
60099;BME280;62818;49.394;8.686;2022-08-20T01:51:41;100239.94;;;22.69;56.72
60099;BME280;62818;49.394;8.686;2022-08-20T01:52:51;100234.00;;;22.45;57.36
60099;BME280;62818;49.394;8.686;2022-08-20T01:53:58;100234.94;;;22.56;57.13
60099;BME280;62818;49.394;8.686;2022-08-20T01:55:04;100235.53;;;22.63;56.83
60099;BME280;62818;49.394;8.686;2022-08-20T01:56:14;100241.56;;;22.70;56.61
60099;BME280;62818;49.394;8.686;2022-08-20T01:57:25;100232.38;;;22.71;56.67
60099;BME280;62818;49.394;8.686;2022-08-20T01:58:34;100235.31;;;22.69;56.77
60099;BME280;62818;49.394;8.686;2022-08-20T01:59:42;100237.19;;;22.64;56.87
60099;BME280;62818;49.394;8.686;2022-08-20T02:00:45;100244.66;;;22.57;56.89
60099;BME280;62818;49.394;8.686;2022-08-20T02:01:46;100244.38;;;22.58;57.24
60099;BME280;62818;49.394;8.686;2022-08-20T02:02:49;100238.28;;;22.68;56.94
60099;BME280;62818;49.394;8.686;2022-08-20T02:03:51;100240.56;;;22.81;56.67
60099;BME280;62818;49.394;8.686;2022-08-20T02:04:53;100241.13;;;22.83;56.65
60099;BME280;62818;49.394;8.686;2022-08-20T02:05:53;100242.75;;;22.84;56.62
60099;BME280;62818;49.394;8.686;2022-08-20T02:06:58;100246.53;;;22.83;56.55
60099;BME280;62818;49.394;8.686;2022-08-20T02:08:00;100249.19;;;22.78;56.76
60099;BME280;62818;49.394;8.686;2022-08-20T02:09:06;100248.66;;;22.81;56.61
60099;BME280;62818;49.394;8.686;2022-08-20T02:10:09;100246.31;;;22.90;56.46
60099;BME280;62818;49.394;8.686;2022-08-20T02:11:13;100247.78;;;22.70;56.91
60099;BME280;62818;49.394;8.686;2022-08-20T02:12:17;100245.56;;;22.36;58.15
60099;BME280;62818;49.394;8.686;2022-08-20T02:13:18;100251.59;;;22.21;58.64
60099;BME280;62818;49.394;8.686;2022-08-20T02:14:20;100258.88;;;22.47;57.96
60099;BME280;62818;49.394;8.686;2022-08-20T02:15:21;100268.78;;;22.63;57.57
60099;BME280;62818;49.394;8.686;2022-08-20T02:16:25;100263.69;;;22.67;57.43
60099;BME280;62818;49.394;8.686;2022-08-20T02:17:33;100258.88;;;22.74;57.20
60099;BME280;62818;49.394;8.686;2022-08-20T02:18:36;100258.66;;;22.80;56.91
60099;BME280;62818;49.394;8.686;2022-08-20T02:19:40;100259.34;;;22.66;57.37
60099;BME280;62818;49.394;8.686;2022-08-20T02:20:46;100267.25;;;22.46;58.06
60099;BME280;62818;49.394;8.686;2022-08-20T02:21:52;100263.47;;;22.47;58.16
60099;BME280;62818;49.394;8.686;2022-08-20T02:22:57;100266.97;;;22.69;57.67
60099;BME280;62818;49.394;8.686;2022-08-20T02:24:03;100256.78;;;22.81;57.14
60099;BME280;62818;49.394;8.686;2022-08-20T02:25:07;100264.84;;;22.76;57.38
60099;BME280;62818;49.394;8.686;2022-08-20T02:26:09;100260.59;;;22.32;59.38
60099;BME280;62818;49.394;8.686;2022-08-20T02:27:10;100265.81;;;22.65;58.29
60099;BME280;62818;49.394;8.686;2022-08-20T02:28:12;100264.22;;;22.64;58.46
60099;BME280;62818;49.394;8.686;2022-08-20T02:29:14;100272.16;;;22.49;59.53
60099;BME280;62818;49.394;8.686;2022-08-20T02:30:21;100261.78;;;22.62;58.59
60099;BME280;62818;49.394;8.686;2022-08-20T02:31:27;100265.00;;;22.38;59.95
60099;BME280;62818;49.394;8.686;2022-08-20T02:32:30;100265.22;;;22.58;59.27
60099;BME280;62818;49.394;8.686;2022-08-20T02:33:35;100270.66;;;22.63;59.37
60099;BME280;62818;49.394;8.686;2022-08-20T02:34:36;100263.47;;;22.47;61.10
60099;BME280;62818;49.394;8.686;2022-08-20T02:35:41;100262.31;;;21.89;63.54
60099;BME280;62818;49.394;8.686;2022-08-20T02:36:46;100259.41;;;21.74;64.62
60099;BME280;62818;49.394;8.686;2022-08-20T02:37:49;100264.56;;;21.97;63.10
60099;BME280;62818;49.394;8.686;2022-08-20T02:38:51;100257.78;;;21.73;64.31
60099;BME280;62818;49.394;8.686;2022-08-20T02:39:51;100259.28;;;21.64;65.78
60099;BME280;62818;49.394;8.686;2022-08-20T02:40:56;100266.22;;;21.38;67.52
60099;BME280;62818;49.394;8.686;2022-08-20T02:41:59;100266.44;;;21.75;66.26
60099;BME280;62818;49.394;8.686;2022-08-20T02:43:02;100263.53;;;21.98;64.67
60099;BME280;62818;49.394;8.686;2022-08-20T02:44:06;100265.72;;;22.28;63.12
60099;BME280;62818;49.394;8.686;2022-08-20T02:45:13;100257.19;;;22.14;65.31
60099;BME280;62818;49.394;8.686;2022-08-20T02:46:16;100263.16;;;22.17;64.36
60099;BME280;62818;49.394;8.686;2022-08-20T02:47:18;100262.88;;;22.40;63.24
60099;BME280;62818;49.394;8.686;2022-08-20T02:48:20;100263.56;;;22.57;62.86
60099;BME280;62818;49.394;8.686;2022-08-20T02:49:22;100261.34;;;22.22;65.35
60099;BME280;62818;49.394;8.686;2022-08-20T02:50:28;100257.00;;;22.48;63.23
60099;BME280;62818;49.394;8.686;2022-08-20T02:51:28;100262.34;;;22.69;62.47
60099;BME280;62818;49.394;8.686;2022-08-20T02:52:32;100269.19;;;22.77;62.00
60099;BME280;62818;49.394;8.686;2022-08-20T02:53:36;100263.28;;;22.53;63.11
60099;BME280;62818;49.394;8.686;2022-08-20T02:54:38;100255.34;;;22.68;62.30
60099;BME280;62818;49.394;8.686;2022-08-20T02:55:41;100264.00;;;22.70;62.52
60099;BME280;62818;49.394;8.686;2022-08-20T02:56:42;100264.06;;;22.54;64.62
60099;BME280;62818;49.394;8.686;2022-08-20T02:57:43;100265.22;;;22.58;63.63
60099;BME280;62818;49.394;8.686;2022-08-20T02:58:47;100261.91;;;22.77;62.41
60099;BME280;62818;49.394;8.686;2022-08-20T02:59:48;100262.13;;;22.76;62.52
60099;BME280;62818;49.394;8.686;2022-08-20T03:00:51;100266.75;;;22.80;62.59
60099;BME280;62818;49.394;8.686;2022-08-20T03:01:53;100261.19;;;22.92;61.79
60099;BME280;62818;49.394;8.686;2022-08-20T03:02:53;100261.16;;;22.87;62.07
60099;BME280;62818;49.394;8.686;2022-08-20T03:03:54;100260.69;;;22.95;62.13
60099;BME280;62818;49.394;8.686;2022-08-20T03:04:58;100265.56;;;22.98;61.95
60099;BME280;62818;49.394;8.686;2022-08-20T03:06:01;100266.66;;;23.02;61.88
60099;BME280;62818;49.394;8.686;2022-08-20T03:07:05;100263.41;;;23.00;62.05
60099;BME280;62818;49.394;8.686;2022-08-20T03:08:11;100264.66;;;22.88;62.46
60099;BME280;62818;49.394;8.686;2022-08-20T03:09:16;100260.72;;;22.42;65.52
60099;BME280;62818;49.394;8.686;2022-08-20T03:10:20;100267.94;;;22.36;65.10
60099;BME280;62818;49.394;8.686;2022-08-20T03:11:23;100260.59;;;22.32;66.01
60099;BME280;62818;49.394;8.686;2022-08-20T03:12:24;100263.81;;;21.80;68.47
60099;BME280;62818;49.394;8.686;2022-08-20T03:13:27;100255.63;;;22.19;66.02
60099;BME280;62818;49.394;8.686;2022-08-20T03:14:29;100265.97;;;22.53;64.69
60099;BME280;62818;49.394;8.686;2022-08-20T03:15:32;100263.09;;;22.60;64.29
60099;BME280;62818;49.394;8.686;2022-08-20T03:16:35;100256.88;;;21.84;68.74
60099;BME280;62818;49.394;8.686;2022-08-20T03:17:36;100254.31;;;21.78;68.68
60099;BME280;62818;49.394;8.686;2022-08-20T03:18:42;100256.66;;;21.69;69.71
60099;BME280;62818;49.394;8.686;2022-08-20T03:19:46;100259.84;;;21.88;68.56
60099;BME280;62818;49.394;8.686;2022-08-20T03:20:46;100263.75;;;21.37;71.36
60099;BME280;62818;49.394;8.686;2022-08-20T03:21:49;100265.69;;;21.58;69.86
60099;BME280;62818;49.394;8.686;2022-08-20T03:22:53;100263.84;;;21.64;70.06
60099;BME280;62818;49.394;8.686;2022-08-20T03:23:53;100261.09;;;21.59;70.21
60099;BME280;62818;49.394;8.686;2022-08-20T03:24:54;100271.63;;;21.98;68.17
60099;BME280;62818;49.394;8.686;2022-08-20T03:25:55;100265.00;;;22.38;66.37
60099;BME280;62818;49.394;8.686;2022-08-20T03:26:58;100267.34;;;22.56;65.84
60099;BME280;62818;49.394;8.686;2022-08-20T03:27:58;100266.34;;;22.62;65.34
60099;BME280;62818;49.394;8.686;2022-08-20T03:28:59;100267.03;;;22.26;67.45
60099;BME280;62818;49.394;8.686;2022-08-20T03:30:02;100270.31;;;21.41;71.68
60099;BME280;62818;49.394;8.686;2022-08-20T03:31:07;100260.63;;;22.05;67.98
60099;BME280;62818;49.394;8.686;2022-08-20T03:32:09;100257.59;;;21.80;69.81
60099;BME280;62818;49.394;8.686;2022-08-20T03:33:10;100260.84;;;21.22;72.92
60099;BME280;62818;49.394;8.686;2022-08-20T03:34:10;100266.72;;;21.95;68.68
60099;BME280;62818;49.394;8.686;2022-08-20T03:35:13;100265.88;;;21.95;69.43
60099;BME280;62818;49.394;8.686;2022-08-20T03:36:18;100258.34;;;21.75;70.14
60099;BME280;62818;49.394;8.686;2022-08-20T03:37:19;100268.06;;;22.20;67.89
60099;BME280;62818;49.394;8.686;2022-08-20T03:38:22;100259.28;;;22.07;68.43
60099;BME280;62818;49.394;8.686;2022-08-20T03:39:23;100263.03;;;22.28;67.46
60099;BME280;62818;49.394;8.686;2022-08-20T03:40:31;100261.97;;;22.07;68.63
60099;BME280;62818;49.394;8.686;2022-08-20T03:41:37;100252.16;;;22.50;66.32
60099;BME280;62818;49.394;8.686;2022-08-20T03:42:38;100258.03;;;22.68;65.43
60099;BME280;62818;49.394;8.686;2022-08-20T03:43:40;100256.72;;;22.71;65.55
60099;BME280;62818;49.394;8.686;2022-08-20T03:44:43;100261.84;;;22.46;66.82
60099;BME280;62818;49.394;8.686;2022-08-20T03:45:47;100254.09;;;22.28;67.46
60099;BME280;62818;49.394;8.686;2022-08-20T03:46:48;100257.34;;;22.30;67.29
60099;BME280;62818;49.394;8.686;2022-08-20T03:47:51;100257.69;;;22.60;66.06
60099;BME280;62818;49.394;8.686;2022-08-20T03:48:56;100259.19;;;22.51;66.42
60099;BME280;62818;49.394;8.686;2022-08-20T03:49:58;100252.75;;;21.82;69.76
60099;BME280;62818;49.394;8.686;2022-08-20T03:51:05;100252.47;;;22.27;68.32
60099;BME280;62818;49.394;8.686;2022-08-20T03:52:06;100254.91;;;22.28;67.45
60099;BME280;62818;49.394;8.686;2022-08-20T03:53:09;100258.09;;;22.20;68.51
60099;BME280;62818;49.394;8.686;2022-08-20T03:54:11;100257.34;;;22.30;68.03
60099;BME280;62818;49.394;8.686;2022-08-20T03:55:12;100261.81;;;21.92;69.97
60099;BME280;62818;49.394;8.686;2022-08-20T03:56:13;100256.84;;;22.33;67.63
60099;BME280;62818;49.394;8.686;2022-08-20T03:57:14;100259.47;;;22.54;67.04
60099;BME280;62818;49.394;8.686;2022-08-20T03:58:15;100250.56;;;22.54;66.76
60099;BME280;62818;49.394;8.686;2022-08-20T03:59:18;100255.66;;;22.50;66.72
60099;BME280;62818;49.394;8.686;2022-08-20T04:01:48;100261.94;;;22.56;66.69
60099;BME280;62818;49.394;8.686;2022-08-20T04:02:48;100261.03;;;22.72;65.78
60099;BME280;62818;49.394;8.686;2022-08-20T04:03:49;100254.56;;;22.78;65.58
60099;BME280;62818;49.394;8.686;2022-08-20T04:04:52;100257.28;;;22.78;65.67
60099;BME280;62818;49.394;8.686;2022-08-20T04:05:55;100254.16;;;22.91;64.92
60099;BME280;62818;49.394;8.686;2022-08-20T04:06:55;100254.94;;;22.87;65.42
60099;BME280;62818;49.394;8.686;2022-08-20T04:07:57;100253.53;;;22.79;65.47
60099;BME280;62818;49.394;8.686;2022-08-20T04:09:04;100250.53;;;22.75;65.76
60099;BME280;62818;49.394;8.686;2022-08-20T04:10:10;100253.25;;;22.80;65.47
60099;BME280;62818;49.394;8.686;2022-08-20T04:11:11;100252.25;;;22.87;65.15
60099;BME280;62818;49.394;8.686;2022-08-20T04:12:12;100248.75;;;22.91;65.00
60099;BME280;62818;49.394;8.686;2022-08-20T04:13:18;100263.34;;;22.90;65.11
60099;BME280;62818;49.394;8.686;2022-08-20T04:14:24;100253.38;;;22.96;64.98
60099;BME280;62818;49.394;8.686;2022-08-20T04:15:25;100253.56;;;22.84;65.50
60099;BME280;62818;49.394;8.686;2022-08-20T04:16:26;100254.69;;;22.88;65.23
60099;BME280;62818;49.394;8.686;2022-08-20T04:17:26;100246.63;;;22.93;64.88
60099;BME280;62818;49.394;8.686;2022-08-20T04:18:27;100254.06;;;22.81;66.13
60099;BME280;62818;49.394;8.686;2022-08-20T04:19:27;100248.59;;;22.71;65.91
60099;BME280;62818;49.394;8.686;2022-08-20T04:20:30;100257.78;;;22.70;65.95
60099;BME280;62818;49.394;8.686;2022-08-20T04:21:34;100250.88;;;22.84;65.52
60099;BME280;62818;49.394;8.686;2022-08-20T04:22:38;100249.72;;;22.75;65.98
60099;BME280;62818;49.394;8.686;2022-08-20T04:23:39;100253.56;;;22.84;65.77
60099;BME280;62818;49.394;8.686;2022-08-20T04:24:41;100252.91;;;22.72;66.00
60099;BME280;62818;49.394;8.686;2022-08-20T04:25:43;100257.06;;;22.53;66.79
60099;BME280;62818;49.394;8.686;2022-08-20T04:26:45;100256.56;;;22.56;66.76
60099;BME280;62818;49.394;8.686;2022-08-20T04:27:49;100258.81;;;22.64;66.58
60099;BME280;62818;49.394;8.686;2022-08-20T04:28:52;100257.78;;;22.70;66.20
60099;BME280;62818;49.394;8.686;2022-08-20T04:29:55;100254.56;;;22.78;65.99
60099;BME280;62818;49.394;8.686;2022-08-20T04:30:58;100259.09;;;22.67;66.32
60099;BME280;62818;49.394;8.686;2022-08-20T04:32:00;100255.13;;;22.75;66.17
60099;BME280;62818;49.394;8.686;2022-08-20T04:33:05;100259.19;;;22.77;65.73
60099;BME280;62818;49.394;8.686;2022-08-20T04:34:06;100260.91;;;22.89;65.43
60099;BME280;62818;49.394;8.686;2022-08-20T04:35:10;100253.03;;;22.87;65.46
60099;BME280;62818;49.394;8.686;2022-08-20T04:36:17;100259.03;;;22.94;65.27
60099;BME280;62818;49.394;8.686;2022-08-20T04:37:21;100256.88;;;22.96;64.95
60099;BME280;62818;49.394;8.686;2022-08-20T04:38:22;100261.84;;;23.04;64.75
60099;BME280;62818;49.394;8.686;2022-08-20T04:39:25;100265.88;;;23.02;64.70
60099;BME280;62818;49.394;8.686;2022-08-20T04:40:31;100264.72;;;22.93;65.16
60099;BME280;62818;49.394;8.686;2022-08-20T04:41:52;100267.09;;;22.89;65.47
60099;BME280;62818;49.394;8.686;2022-08-20T04:42:56;100259.03;;;22.94;65.01
60099;BME280;62818;49.394;8.686;2022-08-20T04:43:56;100265.94;;;22.75;66.05
60099;BME280;62818;49.394;8.686;2022-08-20T04:44:57;100268.78;;;22.63;66.48
60099;BME280;62818;49.394;8.686;2022-08-20T04:45:59;100272.44;;;22.52;67.11
60099;BME280;62818;49.394;8.686;2022-08-20T04:47:02;100269.78;;;22.57;66.97
60099;BME280;62818;49.394;8.686;2022-08-20T04:48:03;100274.63;;;22.82;65.78
60099;BME280;62818;49.394;8.686;2022-08-20T04:49:08;100276.56;;;22.87;65.73
60099;BME280;62818;49.394;8.686;2022-08-20T04:50:12;100270.47;;;23.01;64.83
60099;BME280;62818;49.394;8.686;2022-08-20T04:51:13;100274.16;;;22.90;65.62
60099;BME280;62818;49.394;8.686;2022-08-20T04:52:14;100275.88;;;23.01;65.15
60099;BME280;62818;49.394;8.686;2022-08-20T04:53:18;100276.38;;;22.98;65.17
60099;BME280;62818;49.394;8.686;2022-08-20T04:54:27;100274.16;;;22.90;65.30
60099;BME280;62818;49.394;8.686;2022-08-20T04:55:28;100285.50;;;22.60;66.73
60099;BME280;62818;49.394;8.686;2022-08-20T04:56:32;100284.91;;;22.80;65.94
60099;BME280;62818;49.394;8.686;2022-08-20T04:57:42;100283.25;;;22.79;66.11
60099;BME280;62818;49.394;8.686;2022-08-20T04:58:43;100283.38;;;22.94;65.31
60099;BME280;62818;49.394;8.686;2022-08-20T04:59:52;100286.16;;;22.46;67.88
60099;BME280;62818;49.394;8.686;2022-08-20T05:00:58;100291.53;;;22.67;66.54
60099;BME280;62818;49.394;8.686;2022-08-20T05:02:05;100286.81;;;22.58;67.49
60099;BME280;62818;49.394;8.686;2022-08-20T05:03:13;100296.81;;;22.84;66.20
60099;BME280;62818;49.394;8.686;2022-08-20T05:04:16;100290.69;;;22.67;66.83
60099;BME280;62818;49.394;8.686;2022-08-20T05:05:19;100287.53;;;22.75;66.45
60099;BME280;62818;49.394;8.686;2022-08-20T05:06:25;100283.69;;;22.66;67.38
60099;BME280;62818;49.394;8.686;2022-08-20T05:07:28;100283.03;;;22.59;67.24
60099;BME280;62818;49.394;8.686;2022-08-20T05:08:31;100285.53;;;22.39;68.32
60099;BME280;62818;49.394;8.686;2022-08-20T05:09:37;100281.59;;;22.78;66.63
60099;BME280;62818;49.394;8.686;2022-08-20T05:10:41;100292.50;;;22.08;69.85
60099;BME280;62818;49.394;8.686;2022-08-20T05:11:47;100284.56;;;22.23;69.13
60099;BME280;62818;49.394;8.686;2022-08-20T05:12:52;100292.66;;;22.50;68.27
60099;BME280;62818;49.394;8.686;2022-08-20T05:13:55;100292.00;;;22.59;67.93
60099;BME280;62818;49.394;8.686;2022-08-20T05:14:56;100288.28;;;22.44;68.57
60099;BME280;62818;49.394;8.686;2022-08-20T05:15:57;100288.34;;;22.49;68.47
60099;BME280;62818;49.394;8.686;2022-08-20T05:17:03;100294.66;;;22.33;68.94
60099;BME280;62818;49.394;8.686;2022-08-20T05:18:08;100284.81;;;22.22;69.58
60099;BME280;62818;49.394;8.686;2022-08-20T05:19:10;100288.78;;;21.92;71.23
60099;BME280;62818;49.394;8.686;2022-08-20T05:20:16;100282.63;;;22.45;68.92
60099;BME280;62818;49.394;8.686;2022-08-20T05:21:19;100283.56;;;22.56;68.27
60099;BME280;62818;49.394;8.686;2022-08-20T05:22:25;100282.13;;;22.22;70.27
60099;BME280;62818;49.394;8.686;2022-08-20T05:23:27;100288.06;;;22.72;67.42
60099;BME280;62818;49.394;8.686;2022-08-20T05:24:27;100289.03;;;22.93;66.44
60099;BME280;62818;49.394;8.686;2022-08-20T05:25:32;100292.69;;;23.08;65.74
60099;BME280;62818;49.394;8.686;2022-08-20T05:26:36;100292.38;;;23.05;66.09
60099;BME280;62818;49.394;8.686;2022-08-20T05:27:36;100299.09;;;21.95;71.25
60099;BME280;62818;49.394;8.686;2022-08-20T05:28:41;100303.28;;;22.08;70.90
60099;BME280;62818;49.394;8.686;2022-08-20T05:29:44;100300.63;;;22.35;69.96
60099;BME280;62818;49.394;8.686;2022-08-20T05:30:46;100306.75;;;22.03;70.93
60099;BME280;62818;49.394;8.686;2022-08-20T05:31:50;100310.72;;;21.96;71.86
60099;BME280;62818;49.394;8.686;2022-08-20T05:32:51;100307.38;;;22.10;70.70
60099;BME280;62818;49.394;8.686;2022-08-20T05:33:53;100306.59;;;22.37;69.66
60099;BME280;62818;49.394;8.686;2022-08-20T05:34:55;100303.88;;;22.37;69.31
60099;BME280;62818;49.394;8.686;2022-08-20T05:35:56;100308.94;;;22.28;69.94
60099;BME280;62818;49.394;8.686;2022-08-20T05:37:01;100308.56;;;22.20;70.63
60099;BME280;62818;49.394;8.686;2022-08-20T05:38:07;100312.06;;;22.42;69.75
60099;BME280;62818;49.394;8.686;2022-08-20T05:39:11;100318.03;;;22.70;68.15
60099;BME280;62818;49.394;8.686;2022-08-20T05:40:14;100319.97;;;22.75;68.12